Time;durP1;ratioP1;P1;durP2;ratioP2;P2;SDS_P1;SDS_P2;PMS_P1;PMS_P2;Temp;Humidity;BMP_temperature;BMP_pressure;BME280_temperature;BME280_humidity;BME280_pressure;Samples;Min_cycle;Max_cycle;Signal;HPM_P1;HPM_P2
2022/06/09 00:00:24;;;;;;;8.63;5.65;;;;;;;16.56;100.00;100608.13;10223595;28;20579;-63
2022/06/09 00:05:21;;;;;;;9.63;5.28;;;;;;;16.54;100.00;100609.66;10225203;28;20049;-63
2022/06/09 00:10:27;;;;;;;7.07;4.20;;;;;;;16.51;100.00;100596.59;10230159;28;20058;-61
2022/06/09 00:15:24;;;;;;;8.25;5.03;;;;;;;16.47;100.00;100596.50;10227194;28;20045;-65
2022/06/09 00:20:21;;;;;;;7.75;4.82;;;;;;;16.43;100.00;100603.94;10230382;28;20133;-60
2022/06/09 00:25:18;;;;;;;7.00;4.70;;;;;;;16.44;100.00;100605.50;10228760;28;20477;-65
2022/06/09 00:30:16;;;;;;;8.88;5.30;;;;;;;16.42;100.00;100596.78;10227996;28;20046;-65
2022/06/09 00:35:13;;;;;;;9.73;5.60;;;;;;;16.40;100.00;100599.91;10229392;28;20045;-65
2022/06/09 00:40:12;;;;;;;8.05;4.90;;;;;;;16.38;100.00;100606.94;10230423;28;20077;-65
2022/06/09 00:45:34;;;;;;;8.30;6.05;;;;;;;16.36;100.00;100603.72;10224738;28;20103;-65
2022/06/09 00:50:33;;;;;;;9.48;5.35;;;;;;;16.30;100.00;100606.00;10228890;28;20536;-63
2022/06/09 00:55:33;;;;;;;7.20;4.40;;;;;;;16.33;100.00;100604.47;10226047;28;20489;-63
2022/06/09 01:00:39;;;;;;;7.95;4.97;;;;;;;16.30;100.00;100616.22;10224698;28;20429;-60
2022/06/09 01:05:39;;;;;;;8.93;4.85;;;;;;;16.30;100.00;100617.03;10222963;28;20041;-61
2022/06/09 01:10:37;;;;;;;7.05;4.53;;;;;;;16.26;100.00;100605.09;10225780;28;20049;-60
2022/06/09 01:15:59;;;;;;;8.00;5.22;;;;;;;16.20;100.00;100599.06;10221635;28;20140;-60
2022/06/09 01:21:02;;;;;;;7.90;5.40;;;;;;;16.13;100.00;100601.66;10225682;28;20132;-65
2022/06/09 01:26:15;;;;;;;7.68;6.10;;;;;;;16.15;100.00;100604.03;10220474;28;20107;-65
2022/06/09 01:31:23;;;;;;;10.57;6.95;;;;;;;16.09;100.00;100606.28;10230133;28;20121;-65
2022/06/09 01:36:35;;;;;;;8.75;6.85;;;;;;;16.10;100.00;100599.59;10217298;28;20056;-65
2022/06/09 01:41:33;;;;;;;10.02;7.50;;;;;;;16.10;100.00;100602.38;10223042;28;20092;-63
2022/06/09 01:46:36;;;;;;;11.65;7.13;;;;;;;16.10;100.00;100596.84;10215566;28;20080;-63
2022/06/09 01:51:37;;;;;;;10.80;6.60;;;;;;;16.09;100.00;100589.75;10221218;28;20046;-64
2022/06/09 01:56:56;;;;;;;9.07;7.57;;;;;;;16.08;100.00;100588.16;10220127;28;20045;-60
2022/06/09 02:01:58;;;;;;;11.00;8.07;;;;;;;16.03;100.00;100587.63;10233159;28;20566;-60
2022/06/09 02:06:55;;;;;;;8.65;7.30;;;;;;;15.98;100.00;100585.94;10220349;28;20037;-60
2022/06/09 02:11:54;;;;;;;10.40;7.00;;;;;;;15.94;100.00;100587.78;10228471;28;20132;-60
2022/06/09 02:16:51;;;;;;;12.68;7.95;;;;;;;15.91;100.00;100596.78;10217547;28;20325;-61
2022/06/09 02:21:48;;;;;;;9.52;6.82;;;;;;;15.85;100.00;100595.44;10226695;28;20060;-64
2022/06/09 02:26:44;;;;;;;11.27;6.55;;;;;;;15.83;100.00;100603.28;10226566;28;20076;-65
2022/06/09 02:31:41;;;;;;;8.75;6.95;;;;;;;15.84;100.00;100599.38;10220801;28;20103;-61
2022/06/09 02:36:38;;;;;;;11.45;7.05;;;;;;;15.84;100.00;100599.38;10217728;28;20060;-61
2022/06/09 02:41:35;;;;;;;8.48;6.45;;;;;;;15.80;100.00;100598.47;10219647;28;20092;-61
2022/06/09 02:46:32;;;;;;;8.82;6.03;;;;;;;15.68;100.00;100602.88;10216576;28;20049;-61
2022/06/09 02:51:34;;;;;;;7.32;5.13;;;;;;;15.69;100.00;100609.22;10221170;28;20047;-61
2022/06/09 02:56:31;;;;;;;7.75;4.13;;;;;;;15.66;100.00;100618.97;10217049;28;20046;-62
2022/06/09 03:01:29;;;;;;;8.20;4.68;;;;;;;15.66;100.00;100618.97;10227583;28;20584;-65
2022/06/09 03:06:25;;;;;;;8.00;3.40;;;;;;;15.61;100.00;100613.72;10217044;28;20092;-60
2022/06/09 03:11:22;;;;;;;6.25;3.03;;;;;;;15.56;100.00;100609.28;10228208;28;20553;-60
2022/06/09 03:16:19;;;;;;;7.53;4.07;;;;;;;15.55;100.00;100613.22;10222206;28;20054;-60
2022/06/09 03:21:16;;;;;;;6.88;4.40;;;;;;;15.53;100.00;100625.75;10226070;28;20048;-65
2022/06/09 03:26:13;;;;;;;7.63;3.58;;;;;;;15.48;100.00;100625.97;10225568;28;20069;-65
2022/06/09 03:31:09;;;;;;;10.07;4.45;;;;;;;15.42;100.00;100632.91;10230002;28;20045;-65
2022/06/09 03:36:06;;;;;;;6.57;4.05;;;;;;;15.39;100.00;100633.59;10232516;28;20041;-65
2022/06/09 03:41:02;;;;;;;9.45;4.68;;;;;;;15.38;100.00;100637.53;10229789;28;20069;-60
2022/06/09 03:45:59;;;;;;;7.18;4.65;;;;;;;15.41;100.00;100643.16;10232373;28;20068;-60
2022/06/09 03:50:56;;;;;;;7.65;4.68;;;;;;;15.41;100.00;100642.31;10226102;28;20050;-60
2022/06/09 03:55:53;;;;;;;8.88;4.97;;;;;;;15.41;100.00;100639.56;10229321;28;20474;-61
2022/06/09 04:00:49;;;;;;;7.38;4.88;;;;;;;15.43;100.00;100640.81;10230957;28;20080;-61
2022/06/09 04:05:46;;;;;;;8.07;5.32;;;;;;;15.46;100.00;100656.66;10222353;28;20056;-64
2022/06/09 04:10:42;;;;;;;10.13;6.10;;;;;;;15.48;100.00;100651.59;10225827;28;20501;-63
2022/06/09 04:15:39;;;;;;;8.98;6.47;;;;;;;15.46;100.00;100653.91;10210198;28;20103;-64
2022/06/09 04:20:36;;;;;;;9.05;6.13;;;;;;;15.46;100.00;100656.66;10213701;28;20706;-64
2022/06/09 04:25:33;;;;;;;9.52;6.82;;;;;;;15.47;100.00;100649.19;10214181;28;20145;-61
2022/06/09 04:30:30;;;;;;;9.15;7.10;;;;;;;15.48;100.00;100659.03;10210650;28;20075;-62
2022/06/09 04:35:27;;;;;;;11.32;7.97;;;;;;;15.52;100.00;100666.25;10222688;28;20444;-67
2022/06/09 04:40:24;;;;;;;12.80;8.35;;;;;;;15.55;100.00;100664.78;10212311;28;20046;-66
2022/06/09 04:45:21;;;;;;;14.98;9.48;;;;;;;15.60;100.00;100666.47;10220088;28;20057;-64
2022/06/09 04:50:18;;;;;;;14.25;10.50;;;;;;;15.61;100.00;100674.38;10223731;28;20055;-64
2022/06/09 04:55:15;;;;;;;18.08;12.00;;;;;;;15.61;100.00;100671.59;10204695;28;20490;-64
2022/06/09 05:00:14;;;;;;;16.30;10.90;;;;;;;15.65;100.00;100686.28;10216333;28;20459;-67
2022/06/09 05:05:19;;;;;;;13.70;10.35;;;;;;;15.63;100.00;100694.09;10221086;28;20080;-66
2022/06/09 05:10:16;;;;;;;14.02;10.82;;;;;;;15.63;100.00;100694.09;10218423;28;20080;-66
2022/06/09 05:15:17;;;;;;;16.83;11.45;;;;;;;15.64;100.00;100695.72;10213013;28;20133;-68
2022/06/09 05:20:16;;;;;;;18.75;13.52;;;;;;;15.68;100.00;100702.13;10212431;28;20053;-68
2022/06/09 05:25:13;;;;;;;20.48;13.43;;;;;;;15.57;100.00;100707.34;10203627;28;20050;-68
2022/06/09 05:30:20;;;;;;;17.23;14.32;;;;;;;15.58;100.00;100708.16;10208120;28;20133;-67
2022/06/09 05:35:18;;;;;;;23.75;16.67;;;;;;;15.53;100.00;100716.69;10208036;28;20103;-67
2022/06/09 05:45:30;;;;;;;19.42;14.55;;;;;;;15.59;100.00;100720.75;10209679;28;20114;-68
2022/06/09 05:50:27;;;;;;;18.30;14.00;;;;;;;15.70;100.00;100732.09;10212137;28;20048;-68
2022/06/09 05:55:23;;;;;;;23.73;13.40;;;;;;;15.83;100.00;100736.44;10206982;28;20505;-68
2022/06/09 06:00:20;;;;;;;16.73;11.65;;;;;;;15.85;100.00;100734.13;10218390;28;20425;-67
2022/06/09 06:10:32;;;;;;;17.88;9.60;;;;;;;15.95;100.00;100754.84;10221772;28;20072;-68
2022/06/09 06:15:29;;;;;;;12.75;7.85;;;;;;;16.03;100.00;100761.34;10221737;28;20553;-68
2022/06/09 06:20:26;;;;;;;11.93;7.75;;;;;;;15.98;100.00;100765.97;10219782;28;20148;-65
2022/06/09 06:25:23;;;;;;;11.25;7.40;;;;;;;15.93;100.00;100779.22;10216486;28;20053;-65
2022/06/09 06:30:21;;;;;;;9.90;6.65;;;;;;;15.84;100.00;100804.19;10214865;28;20049;-65
2022/06/09 06:35:18;;;;;;;8.15;4.47;;;;;;;15.97;100.00;100796.66;10211317;28;20130;-68
2022/06/09 06:40:15;;;;;;;6.80;3.72;;;;;;;16.03;100.00;100802.72;10207641;28;20133;-68
2022/06/09 06:45:13;;;;;;;5.72;3.60;;;;;;;16.14;100.00;100807.38;10198230;28;20050;-68
2022/06/09 06:50:12;;;;;;;5.05;3.35;;;;;;;16.23;100.00;100817.44;10177656;28;20057;-66
2022/06/09 06:55:12;;;;;;;4.80;3.08;;;;;;;16.20;100.00;100822.50;10197343;28;20042;-66
2022/06/09 07:00:12;;;;;;;4.30;2.75;;;;;;;16.10;100.00;100828.53;10199253;28;20488;-69
2022/06/09 07:05:09;;;;;;;4.60;3.15;;;;;;;16.12;100.00;100841.97;10215576;28;20084;-68
2022/06/09 07:10:07;;;;;;;5.13;3.33;;;;;;;16.15;100.00;100850.34;10205624;28;20077;-67
2022/06/09 07:15:05;;;;;;;5.50;3.13;;;;;;;16.16;100.00;100860.22;10207101;28;20071;-66
2022/06/09 07:20:02;;;;;;;5.10;3.42;;;;;;;16.20;100.00;100861.13;10188351;28;20081;-67
2022/06/09 07:24:59;;;;;;;5.50;3.88;;;;;;;16.22;100.00;100862.72;10194018;28;20414;-67
2022/06/09 07:29:56;;;;;;;5.50;3.40;;;;;;;16.32;100.00;100881.53;10208061;28;20104;-67
2022/06/09 07:34:52;;;;;;;6.25;4.20;;;;;;;16.31;100.00;100879.91;10193682;28;20045;-66
2022/06/09 07:39:49;;;;;;;7.10;3.80;;;;;;;16.34;100.00;100873.72;10210614;28;20144;-65
2022/06/09 07:44:46;;;;;;;7.13;4.35;;;;;;;16.47;100.00;100885.47;10211898;28;20456;-66
2022/06/09 07:49:43;;;;;;;6.90;4.22;;;;;;;16.48;100.00;100876.84;10221435;28;20533;-67
2022/06/09 07:54:39;;;;;;;8.13;4.30;;;;;;;16.42;100.00;100883.78;10213206;28;20512;-67
2022/06/09 07:59:36;;;;;;;8.60;4.60;;;;;;;16.36;100.00;100902.56;10209958;28;20391;-67
2022/06/09 08:04:33;;;;;;;6.63;4.97;;;;;;;16.40;100.00;100905.41;10220121;28;20132;-67
2022/06/09 08:09:31;;;;;;;7.78;5.65;;;;;;;16.44;100.00;100908.25;10230043;28;20124;-67
2022/06/09 08:14:27;;;;;;;7.90;5.68;;;;;;;16.48;100.00;100915.50;10220156;28;20069;-67
2022/06/09 08:19:25;;;;;;;9.18;6.07;;;;;;;16.63;100.00;100934.03;10229481;28;20484;-67
2022/06/09 08:24:22;;;;;;;10.40;7.38;;;;;;;16.71;100.00;100929.50;10222484;28;20037;-67
2022/06/09 08:29:19;;;;;;;13.10;7.50;;;;;;;16.87;100.00;100928.72;10225116;28;20062;-67
2022/06/09 08:34:15;;;;;;;13.35;7.70;;;;;;;16.78;100.00;100945.47;10213779;28;20073;-66
2022/06/09 08:39:12;;;;;;;11.85;7.35;;;;;;;16.71;100.00;100956.28;10222478;28;20152;-66
2022/06/09 08:44:35;;;;;;;12.18;7.10;;;;;;;16.96;100.00;100963.31;10217449;28;20313;-66
2022/06/09 08:49:59;;;;;;;12.75;7.40;;;;;;;17.09;100.00;100971.53;10213081;28;20149;-67
2022/06/09 08:54:57;;;;;;;12.38;8.05;;;;;;;17.02;100.00;100980.44;10209351;28;20145;-68
2022/06/09 08:59:57;;;;;;;12.93;7.80;;;;;;;17.06;100.00;100983.25;10208434;28;20065;-68
2022/06/09 09:05:07;;;;;;;13.18;7.70;;;;;;;17.17;100.00;101001.75;10214195;28;20509;-68
2022/06/09 09:10:22;;;;;;;13.68;8.50;;;;;;;17.11;100.00;100994.06;10213180;28;20045;-68
2022/06/09 09:15:26;;;;;;;11.50;5.85;;;;;;;17.08;100.00;100997.53;10214776;28;20104;-66
2022/06/09 09:20:31;;;;;;;13.18;7.63;;;;;;;16.96;100.00;101018.53;10225257;28;20045;-66
2022/06/09 09:26:03;;;;;;;9.55;6.80;;;;;;;16.95;100.00;101021.69;10224289;28;20095;-66
2022/06/09 09:31:39;;;;;;;14.10;7.05;;;;;;;17.14;100.00;101018.22;10224999;28;20390;-66
2022/06/09 09:36:37;;;;;;;10.40;6.40;;;;;;;17.25;100.00;101024.81;10163670;28;20475;-66
2022/06/09 09:41:37;;;;;;;9.77;5.57;;;;;;;17.35;100.00;101029.00;10227977;28;20386;-66
2022/06/09 09:46:34;;;;;;;8.35;5.85;;;;;;;17.54;100.00;101047.66;10213790;28;20052;-66
2022/06/09 09:51:34;;;;;;;11.38;6.80;;;;;;;17.49;100.00;101036.88;10224304;28;20041;-66
2022/06/09 09:56:34;;;;;;;10.32;6.05;;;;;;;17.59;100.00;101050.97;10217826;28;20552;-66
2022/06/09 10:12:33;;;;;;;9.98;4.75;;;;;;;17.72;100.00;101071.00;10210481;28;20041;-66
2022/06/09 10:18:03;;;;;;;8.50;4.85;;;;;;;18.24;100.00;101050.53;10214090;28;20497;-66
2022/06/09 10:23:33;;;;;;;8.30;4.97;;;;;;;18.14;100.00;101059.38;10209659;28;20075;-67
2022/06/09 10:29:00;;;;;;;9.05;4.95;;;;;;;17.97;100.00;101081.91;10218290;28;20069;-66
2022/06/09 10:34:06;;;;;;;8.00;5.18;;;;;;;17.97;100.00;101087.44;10214681;28;20099;-66
2022/06/09 10:39:14;;;;;;;10.43;5.68;;;;;;;17.81;100.00;101088.25;10216574;28;20050;-66
2022/06/09 10:44:34;;;;;;;7.97;5.18;;;;;;;18.02;100.00;101089.94;10218759;28;20187;-66
2022/06/09 10:55:15;;;;;;;8.00;4.72;;;;;;;18.69;100.00;101095.34;10214567;28;20049;-66
2022/06/09 11:00:23;;;;;;;8.82;5.63;;;;;;;18.67;100.00;101106.78;10223077;28;20065;-68
2022/06/09 11:05:32;;;;;;;9.65;5.22;;;;;;;18.48;100.00;101112.31;10221894;28;20042;-66
2022/06/09 11:10:51;;;;;;;9.82;5.82;;;;;;;18.85;100.00;101121.06;10214542;28;20409;-66
2022/06/09 11:16:02;;;;;;;7.93;4.40;;;;;;;19.50;100.00;101100.91;10206744;28;20137;-67
2022/06/09 11:21:36;;;;;;;6.25;3.58;;;;;;;19.60;100.00;101115.31;10220473;28;20413;-66
2022/06/09 11:26:52;;;;;;;5.20;3.90;;;;;;;19.95;100.00;101110.38;10219029;28;20037;-67
2022/06/09 11:32:19;;;;;;;4.97;2.75;;;;;;;19.62;100.00;101124.06;10216958;28;20540;-67
2022/06/09 11:37:18;;;;;;;4.65;2.08;;;;;;;19.40;100.00;101132.03;10210957;28;20137;-66
2022/06/09 11:42:14;;;;;;;3.97;1.80;;;;;;;19.41;100.00;101130.84;10218645;28;20128;-67
2022/06/09 11:47:21;;;;;;;4.32;2.78;;;;;;;19.16;100.00;101141.44;10233053;28;20556;-66
2022/06/09 11:52:24;;;;;;;4.38;2.80;;;;;;;19.13;100.00;101154.06;10228872;28;20068;-66
2022/06/09 11:57:26;;;;;;;4.15;2.40;;;;;;;19.68;100.00;101145.63;10212574;28;20913;-66
2022/06/09 12:03:02;;;;;;;4.13;2.40;;;;;;;19.69;100.00;101151.97;10202702;28;20159;-66
2022/06/09 12:08:37;;;;;;;6.18;2.67;;;;;;;20.33;100.00;101158.56;10205923;28;20076;-67
2022/06/09 12:13:54;;;;;;;4.22;2.10;;;;;;;19.92;100.00;101163.84;10211694;28;20073;-66
2022/06/09 12:19:14;;;;;;;4.50;2.40;;;;;;;19.87;100.00;101158.63;10210624;28;20089;-66
2022/06/09 12:24:13;;;;;;;4.35;2.60;;;;;;;20.32;100.00;101156.16;10203482;28;20922;-67
2022/06/09 12:29:40;;;;;;;4.25;2.42;;;;;;;20.31;100.00;101177.56;10214467;28;20097;-67
2022/06/09 12:34:39;;;;;;;4.10;2.50;;;;;;;19.92;100.00;101174.97;10206708;28;20041;-67
2022/06/09 12:39:40;;;;;;;5.07;3.28;;;;;;;19.71;100.00;101182.91;10205455;28;20136;-67
2022/06/09 12:44:42;;;;;;;3.67;2.40;;;;;;;19.63;100.00;101175.59;10210462;28;20132;-67
2022/06/09 12:49:42;;;;;;;5.25;1.80;;;;;;;20.08;100.00;101179.59;10213727;28;20046;-67
2022/06/09 12:54:40;;;;;;;4.13;2.25;;;;;;;20.77;100.00;101179.44;10211605;28;20163;-66
2022/06/09 12:59:39;;;;;;;5.00;2.20;;;;;;;20.54;100.00;101208.06;10220098;28;20049;-66
2022/06/09 13:04:52;;;;;;;4.22;2.53;;;;;;;20.55;100.00;101228.31;10214184;28;20058;-66
2022/06/09 13:10:29;;;;;;;4.75;1.50;;;;;;;20.97;100.00;101213.44;10208567;28;20472;-66
2022/06/09 13:15:40;;;;;;;2.72;1.50;;;;;;;21.08;100.00;101214.41;10195357;28;20124;-66
2022/06/09 13:20:39;;;;;;;2.58;1.23;;;;;;;21.15;100.00;101214.47;10203223;28;20096;-67
2022/06/09 13:25:36;;;;;;;2.40;1.05;;;;;;;21.35;100.00;101205.97;10204356;28;20544;-66
2022/06/09 13:30:42;;;;;;;3.78;2.10;;;;;;;21.10;100.00;101216.81;10204241;28;20553;-66
2022/06/09 13:35:42;;;;;;;4.93;1.33;;;;;;;21.33;100.00;101208.34;10205701;28;20041;-66
2022/06/09 13:40:47;;;;;;;2.42;1.25;;;;;;;21.07;100.00;101229.47;10213495;28;20054;-65
2022/06/09 13:45:53;;;;;;;4.75;1.60;;;;;;;20.88;100.00;101238.75;10198613;28;20077;-66
2022/06/09 13:51:09;;;;;;;5.15;1.48;;;;;;;20.62;100.00;101233.22;10208418;28;20104;-67
2022/06/09 13:56:10;;;;;;;3.85;1.15;;;;;;;20.81;100.00;101239.44;10202668;28;20136;-67
2022/06/09 14:01:09;;;;;;;3.35;1.40;;;;;;;20.95;100.00;101254.72;10201232;28;20069;-66
2022/06/09 14:06:11;;;;;;;10.77;1.40;;;;;;;20.87;100.00;101253.03;10197954;28;20049;-66
2022/06/09 14:11:08;;;;;;;;;;;;;;;20.70;100.00;101259.91;10220179;28;20083;-67
2022/06/09 14:16:05;;;;;;;3.35;1.48;;;;;;;21.04;100.00;101260.81;10209067;28;19921;-66
2022/06/09 14:21:03;;;;;;;4.43;1.35;;;;;;;21.73;100.00;101268.03;10214543;28;20123;-66
2022/06/09 14:26:14;;;;;;;4.78;1.20;;;;;;;22.00;100.00;101265.91;10216282;28;20111;-67
2022/06/09 14:31:14;;;;;;;3.60;1.42;;;;;;;21.95;100.00;101266.25;10218925;28;20543;-66
2022/06/09 14:36:13;;;;;;;5.35;1.55;;;;;;;21.47;100.00;101286.44;10211647;28;20108;-67
2022/06/09 14:41:13;;;;;;;3.92;0.95;;;;;;;20.94;100.00;101286.47;10209568;28;20099;-67
2022/06/09 14:46:14;;;;;;;4.70;1.00;;;;;;;21.12;100.00;101289.50;10201050;28;20056;-65
2022/06/09 14:51:12;;;;;;;4.13;1.08;;;;;;;20.68;100.00;101290.88;10195105;28;20128;-67
2022/06/09 14:56:13;;;;;;;9.25;1.70;;;;;;;20.74;100.00;101300.47;10193091;28;20123;-67
2022/06/09 15:01:17;;;;;;;7.32;0.90;;;;;;;20.58;100.00;101308.16;10192666;28;20096;-67
2022/06/09 15:06:17;;;;;;;5.25;2.25;;;;;;;21.18;100.00;101313.81;10191962;28;20136;-67
2022/06/09 15:11:16;;;;;;;5.07;1.70;;;;;;;21.36;99.56;101321.63;10196517;28;20069;-66
2022/06/09 15:16:13;;;;;;;5.70;1.25;;;;;;;21.02;97.99;101343.78;10201726;28;20185;-67
2022/06/09 15:21:30;;;;;;;4.38;0.60;;;;;;;21.03;95.21;101334.28;10211348;28;20056;-67
2022/06/09 15:26:26;;;;;;;3.58;0.57;;;;;;;21.10;96.75;101334.38;10227087;28;20468;-66
2022/06/09 15:31:23;;;;;;;5.35;1.10;;;;;;;21.43;97.70;101342.00;10230200;28;20077;-67
2022/06/09 15:36:23;;;;;;;3.42;1.00;;;;;;;21.60;92.74;101346.19;10221494;28;20140;-66
2022/06/09 15:41:20;;;;;;;2.40;0.70;;;;;;;21.67;92.94;101356.59;10210604;28;20532;-67
2022/06/09 15:46:17;;;;;;;4.32;1.17;;;;;;;21.06;92.93;101366.06;10214141;28;20072;-67
2022/06/09 15:51:16;;;;;;;3.45;1.08;;;;;;;21.31;94.41;101372.00;10221399;28;20075;-66
2022/06/09 15:56:12;;;;;;;6.40;1.10;;;;;;;21.55;94.71;101374.34;10215751;28;20056;-67
2022/06/09 16:01:13;;;;;;;2.35;0.80;;;;;;;22.63;89.39;101375.59;10213549;28;20571;-67
2022/06/09 16:06:13;;;;;;;2.85;0.75;;;;;;;23.66;78.08;101378.28;10207355;28;20077;-67
2022/06/09 16:11:11;;;;;;;7.15;0.82;;;;;;;23.72;73.35;101379.50;10226232;28;20073;-67
2022/06/09 16:16:08;;;;;;;3.95;1.00;;;;;;;24.35;66.20;101382.13;10218128;28;20133;-67
2022/06/09 16:21:04;;;;;;;8.35;1.70;;;;;;;24.18;68.80;101402.44;10210730;28;20065;-67
2022/06/09 16:26:01;;;;;;;5.97;1.25;;;;;;;25.09;68.96;101399.34;10209220;28;20066;-67
2022/06/09 16:30:58;;;;;;;7.40;1.50;;;;;;;24.03;79.94;101410.75;10202070;28;20129;-67
2022/06/09 16:35:54;;;;;;;8.45;1.98;;;;;;;23.05;91.03;101411.41;10201262;28;20048;-66
2022/06/09 16:40:51;;;;;;;8.60;1.48;;;;;;;22.89;87.55;101417.22;10206235;28;20107;-66
2022/06/09 16:45:48;;;;;;;4.30;1.35;;;;;;;22.86;91.34;101436.69;10200195;28;20535;-67
2022/06/09 16:50:44;;;;;;;8.93;1.40;;;;;;;22.38;93.43;101451.34;10200538;28;20580;-67
2022/06/09 16:55:41;;;;;;;6.75;1.80;;;;;;;22.55;93.53;101454.72;10205591;28;20064;-67
2022/06/09 17:00:39;;;;;;;9.32;2.08;;;;;;;22.62;93.18;101466.72;10201097;28;20159;-67
2022/06/09 17:05:42;;;;;;;7.35;1.98;;;;;;;22.97;91.69;101468.25;10216790;28;20481;-67
2022/06/09 17:10:42;;;;;;;8.27;1.63;;;;;;;22.20;94.05;101478.16;10206143;28;20057;-64
2022/06/09 17:15:40;;;;;;;7.47;2.08;;;;;;;22.04;96.87;101487.50;10205516;28;20581;-65
2022/06/09 17:20:37;;;;;;;6.20;1.70;;;;;;;22.14;96.38;101485.25;10207452;28;20052;-66
2022/06/09 17:25:35;;;;;;;8.25;2.00;;;;;;;21.83;99.33;101503.94;10202001;28;20084;-65
2022/06/09 17:30:31;;;;;;;9.10;2.58;;;;;;;21.47;100.00;101514.53;10211148;28;20895;-65
2022/06/09 17:35:33;;;;;;;6.47;2.20;;;;;;;22.37;99.77;101511.06;10202830;28;20216;-66
2022/06/09 17:40:30;;;;;;;5.53;1.73;;;;;;;23.36;91.38;101511.66;10211855;28;20123;-65
2022/06/09 17:45:27;;;;;;;8.68;2.63;;;;;;;23.53;87.62;101524.94;10204014;28;20045;-70
2022/06/09 17:50:27;;;;;;;6.57;1.48;;;;;;;24.03;84.62;101525.28;10208220;28;20046;-66
2022/06/09 17:55:26;;;;;;;6.47;2.20;;;;;;;23.79;88.11;101532.34;10200042;28;20083;-66
2022/06/09 18:00:39;;;;;;;8.90;1.70;;;;;;;22.21;93.55;101536.31;10196286;28;20076;-66
2022/06/09 18:05:37;;;;;;;10.77;2.97;;;;;;;21.29;100.00;101541.22;10198265;28;20080;-65
2022/06/09 18:10:37;;;;;;;7.47;2.17;;;;;;;20.74;100.00;101567.22;10202429;28;20481;-65
2022/06/09 18:15:37;;;;;;;10.32;2.42;;;;;;;20.09;100.00;101569.81;10197474;28;20141;-65
2022/06/09 18:20:34;;;;;;;10.23;2.22;;;;;;;19.86;100.00;101570.47;10195225;28;20056;-65
2022/06/09 18:25:31;;;;;;;8.68;2.55;;;;;;;19.46;100.00;101571.47;10197572;28;20076;-66
2022/06/09 18:30:28;;;;;;;7.47;2.30;;;;;;;19.43;100.00;101591.59;10180998;28;20072;-66
2022/06/09 18:35:24;;;;;;;13.07;2.95;;;;;;;18.96;100.00;101600.66;10208312;28;20416;-66
2022/06/09 18:40:24;;;;;;;9.98;2.70;;;;;;;18.56;100.00;101611.72;10196848;28;20077;-66
2022/06/09 18:45:20;;;;;;;11.18;2.75;;;;;;;18.16;100.00;101615.28;10194936;28;20801;-66
2022/06/09 18:50:18;;;;;;;9.23;2.35;;;;;;;18.01;100.00;101630.59;10200193;28;20053;-66
2022/06/09 18:55:15;;;;;;;12.98;2.60;;;;;;;17.83;100.00;101630.84;10202492;28;20038;-66
2022/06/09 19:00:15;;;;;;;10.32;3.33;;;;;;;17.82;100.00;101645.84;10192230;28;20077;-66
2022/06/09 19:05:13;;;;;;;11.80;2.95;;;;;;;17.85;100.00;101650.69;10192544;28;20156;-65
2022/06/09 19:10:18;;;;;;;8.02;2.55;;;;;;;17.75;100.00;101662.13;10195992;28;20046;-66
2022/06/09 19:15:23;;;;;;;11.20;2.58;;;;;;;17.52;100.00;101664.56;10187670;28;20084;-66
2022/06/09 19:20:21;;;;;;;9.35;3.35;;;;;;;17.50;100.00;101671.53;10210035;28;20042;-66
2022/06/09 19:25:18;;;;;;;9.63;2.80;;;;;;;17.32;100.00;101671.75;10199989;28;20468;-66
2022/06/09 19:30:19;;;;;;;8.95;2.33;;;;;;;17.14;100.00;101687.66;10216400;28;20107;-66
2022/06/09 19:35:16;;;;;;;14.82;3.80;;;;;;;16.97;100.00;101694.16;10217803;28;20137;-66
2022/06/09 19:40:13;;;;;;;12.60;4.45;;;;;;;16.89;100.00;101705.28;10216777;28;20810;-66
2022/06/09 19:45:11;;;;;;;8.90;2.63;;;;;;;16.94;100.00;101721.63;10211067;28;20070;-67
2022/06/09 19:50:13;;;;;;;11.75;2.30;;;;;;;16.98;100.00;101728.13;10222899;28;20112;-66
2022/06/09 19:55:10;;;;;;;15.43;2.80;;;;;;;16.95;100.00;101726.84;10209514;28;20128;-66
2022/06/09 20:00:13;;;;;;;8.52;2.13;;;;;;;16.82;100.00;101736.19;10212433;28;20656;-65
2022/06/09 20:05:10;;;;;;;12.05;2.95;;;;;;;16.87;100.00;101741.50;10211088;28;20049;-64
2022/06/09 20:10:24;;;;;;;6.38;2.10;;;;;;;16.73;100.00;101744.53;10218111;28;20693;-63
2022/06/09 20:15:23;;;;;;;9.20;2.90;;;;;;;16.78;100.00;101754.56;10205116;28;20173;-63
2022/06/09 20:20:35;;;;;;;15.95;5.47;;;;;;;16.65;100.00;101759.19;10192573;28;20081;-63
2022/06/09 20:25:34;;;;;;;11.07;3.05;;;;;;;16.62;100.00;101759.84;10198668;28;20563;-63
2022/06/09 20:30:34;;;;;;;10.05;3.10;;;;;;;16.61;100.00;101759.03;10203741;28;20489;-66
2022/06/09 20:35:31;;;;;;;9.52;2.67;;;;;;;16.69;100.00;101770.38;10207871;28;20120;-66
2022/06/09 20:40:31;;;;;;;16.15;3.78;;;;;;;16.53;100.00;101767.38;10206815;28;20114;-66
2022/06/09 20:45:29;;;;;;;10.57;3.10;;;;;;;16.41;100.00;101776.38;10216697;28;20191;-65
2022/06/09 20:50:28;;;;;;;9.98;2.50;;;;;;;16.20;100.00;101782.63;10226807;28;20091;-64
2022/06/09 20:55:24;;;;;;;11.18;3.20;;;;;;;16.17;100.00;101777.72;10225875;28;20065;-64
2022/06/09 21:00:21;;;;;;;9.70;2.67;;;;;;;16.24;100.00;101779.97;10225870;28;20154;-66
2022/06/09 21:05:18;;;;;;;9.85;2.80;;;;;;;16.23;100.00;101785.84;10227248;28;20076;-66
2022/06/09 21:20:48;;;;;;;11.35;3.17;;;;;;;16.28;100.00;101793.94;10218683;28;20132;-65
2022/06/09 21:25:44;;;;;;;10.45;2.42;;;;;;;16.08;100.00;101803.72;10226614;28;20037;-64
2022/06/09 21:30:41;;;;;;;9.48;2.92;;;;;;;16.02;100.00;101810.59;10225274;28;20053;-64
2022/06/09 21:35:39;;;;;;;13.38;2.85;;;;;;;15.78;100.00;101825.69;10223973;28;20053;-64
2022/06/09 21:40:35;;;;;;;9.00;2.75;;;;;;;15.71;100.00;101823.44;10228461;28;20702;-64
2022/06/09 21:45:32;;;;;;;9.35;3.05;;;;;;;15.50;100.00;101825.19;10226720;28;20095;-64
2022/06/09 21:50:30;;;;;;;11.40;2.67;;;;;;;15.40;100.00;101839.31;10226407;28;20129;-65
2022/06/09 21:55:27;;;;;;;11.25;3.38;;;;;;;15.23;100.00;101849.19;10224210;28;20042;-64
2022/06/09 22:00:31;;;;;;;10.65;3.08;;;;;;;15.12;100.00;101836.84;10221947;28;20972;-66
2022/06/09 22:05:28;;;;;;;8.05;2.80;;;;;;;15.08;100.00;101841.38;10228067;28;20045;-65
2022/06/09 22:10:27;;;;;;;12.32;3.28;;;;;;;15.02;100.00;101842.66;10221129;28;20061;-66
2022/06/09 22:15:24;;;;;;;12.65;2.92;;;;;;;14.93;100.00;101857.22;10215722;28;20076;-65
2022/06/09 22:20:26;;;;;;;6.05;2.17;;;;;;;15.06;100.00;101865.66;10230218;28;20164;-65
2022/06/09 22:25:23;;;;;;;10.07;2.83;;;;;;;15.00;100.00;101869.72;10222626;28;20119;-65
2022/06/09 22:30:23;;;;;;;11.18;2.88;;;;;;;15.01;100.00;101865.81;10228744;28;20053;-64
2022/06/09 22:35:21;;;;;;;5.97;2.60;;;;;;;14.92;100.00;101860.28;10222565;28;20477;-65
2022/06/09 22:40:20;;;;;;;6.88;2.78;;;;;;;14.84;100.00;101861.88;10215796;28;20136;-64
2022/06/09 22:45:16;;;;;;;9.68;3.33;;;;;;;14.79;100.00;101873.03;10223076;28;20095;-65
2022/06/09 22:50:17;;;;;;;9.48;2.50;;;;;;;14.72;100.00;101879.00;10224501;28;20068;-65
2022/06/09 23:00:32;;;;;;;9.40;2.50;;;;;;;14.59;100.00;101879.09;10216926;28;20128;-66
2022/06/09 23:05:30;;;;;;;10.32;3.28;;;;;;;14.57;100.00;101878.59;10219072;28;20099;-66
2022/06/09 23:10:27;;;;;;;6.38;2.78;;;;;;;14.55;100.00;101883.63;10225314;28;20540;-65
2022/06/09 23:15:25;;;;;;;5.90;2.30;;;;;;;14.52;100.00;101874.81;10224505;28;20061;-65
2022/06/09 23:20:29;;;;;;;8.38;2.80;;;;;;;14.59;100.00;101873.59;10220402;28;20054;-65
2022/06/09 23:25:26;;;;;;;12.63;3.33;;;;;;;14.49;100.00;101869.97;10222162;28;20498;-65